Time;durP1;ratioP1;P1;durP2;ratioP2;P2;SDS_P1;SDS_P2;PMS_P1;PMS_P2;Temp;Humidity;BMP_temperature;BMP_pressure;BME280_temperature;BME280_humidity;BME280_pressure;Samples;Min_cycle;Max_cycle;Signal;HPM_P1;HPM_P2
2023/06/24 00:01:33;;;;;;;5.60;4.22;;;25.50;62.00;;;;;;5039053;27;86916;-90
2023/06/24 00:03:59;;;;;;;7.03;4.40;;;25.50;62.10;;;;;;5038956;27;89422;-90
2023/06/24 00:06:25;;;;;;;6.68;4.57;;;25.50;62.20;;;;;;5039193;27;91368;-90
2023/06/24 00:08:52;;;;;;;5.60;4.38;;;25.50;62.20;;;;;;5040217;27;89998;-90
2023/06/24 00:11:18;;;;;;;5.72;4.20;;;25.50;62.20;;;;;;5039669;28;87437;-90
2023/06/24 00:13:44;;;;;;;7.72;5.00;;;25.40;62.10;;;;;;5039553;27;90025;-90
2023/06/24 00:16:10;;;;;;;6.85;4.82;;;25.50;61.90;;;;;;5038751;28;91452;-90
2023/06/24 00:18:37;;;;;;;5.43;3.90;;;25.50;62.10;;;;;;5038965;28;91544;-89
2023/06/24 00:21:03;;;;;;;6.35;4.68;;;25.50;62.10;;;;;;5039509;28;88540;-90
2023/06/24 00:23:30;;;;;;;5.38;4.05;;;25.40;61.90;;;;;;5039128;28;90332;-90
2023/06/24 00:25:56;;;;;;;6.18;4.18;;;25.50;62.00;;;;;;5038250;28;91368;-90
2023/06/24 00:28:22;;;;;;;4.45;4.05;;;25.40;62.00;;;;;;5039101;27;90080;-90
2023/06/24 00:30:48;;;;;;;4.63;3.88;;;25.40;62.10;;;;;;5039523;27;87816;-90
2023/06/24 00:33:14;;;;;;;6.05;4.40;;;25.50;62.00;;;;;;5039686;27;88839;-90
2023/06/24 00:35:40;;;;;;;5.13;4.18;;;25.50;62.00;;;;;;5039415;28;91881;-90
2023/06/24 00:38:06;;;;;;;5.32;4.18;;;25.40;62.00;;;;;;5038440;28;90522;-90
2023/06/24 00:40:32;;;;;;;5.00;4.05;;;25.40;62.00;;;;;;5038755;27;87500;-90
2023/06/24 00:42:58;;;;;;;4.68;3.67;;;25.40;62.00;;;;;;5038621;28;90474;-90
2023/06/24 00:45:25;;;;;;;6.93;4.95;;;25.40;61.80;;;;;;5038651;27;92073;-90
2023/06/24 00:47:51;;;;;;;4.82;4.05;;;25.40;61.70;;;;;;5040234;28;91993;-90
2023/06/24 00:50:17;;;;;;;4.85;4.18;;;25.40;61.80;;;;;;5038186;27;87615;-90
2023/06/24 00:52:43;;;;;;;7.07;4.47;;;25.40;61.80;;;;;;5039092;28;89711;-90
2023/06/24 00:55:12;;;;;;;5.25;3.75;;;25.40;61.90;;;;;;5038745;28;90400;-90
2023/06/24 00:57:39;;;;;;;6.13;4.35;;;25.40;61.80;;;;;;5038306;28;91766;-90
2023/06/24 01:00:13;;;;;;;5.50;3.88;;;25.40;61.80;;;;;;5039442;28;87103;-90
2023/06/24 01:02:42;;;;;;;5.50;4.28;;;25.40;61.70;;;;;;5039344;28;94570;-90
2023/06/24 01:05:08;;;;;;;5.82;4.07;;;25.40;61.60;;;;;;5038961;27;89259;-90
2023/06/24 01:07:36;;;;;;;6.97;4.22;;;25.40;61.70;;;;;;5038651;27;89648;-91
2023/06/24 01:10:06;;;;;;;5.10;4.20;;;25.40;61.70;;;;;;5055872;27;88312;-90
2023/06/24 01:12:34;;;;;;;4.82;3.95;;;25.30;61.60;;;;;;5038010;27;89225;-90
2023/06/24 01:15:01;;;;;;;4.18;3.78;;;25.30;61.90;;;;;;5038859;28;90940;-90
2023/06/24 01:18:00;;;;;;;8.27;4.18;;;25.40;61.90;;;;;;5040358;27;88842;-90
2023/06/24 01:20:40;;;;;;;5.30;4.15;;;25.40;61.70;;;;;;5027038;27;87241;-90
2023/06/24 01:23:43;;;;;;;5.45;3.90;;;25.40;61.80;;;;;;5038168;28;90154;-90
2023/06/24 01:26:42;;;;;;;5.32;4.25;;;25.30;61.60;;;;;;5038049;28;91799;-90
2023/06/24 01:29:08;;;;;;;7.45;4.53;;;25.30;61.90;;;;;;5039004;27;91258;-90
2023/06/24 01:31:43;;;;;;;5.55;4.05;;;25.30;61.80;;;;;;5038325;28;87721;-90
2023/06/24 01:34:21;;;;;;;5.50;4.07;;;25.30;61.90;;;;;;5037690;27;89128;-90
2023/06/24 01:37:08;;;;;;;5.57;4.05;;;25.30;61.50;;;;;;5038035;28;92483;-90
2023/06/24 01:39:37;;;;;;;5.28;4.18;;;25.30;61.80;;;;;;5037766;27;91144;-90
2023/06/24 01:42:15;;;;;;;5.63;4.10;;;25.30;61.70;;;;;;5039027;28;87348;-89
2023/06/24 01:44:43;;;;;;;4.75;4.07;;;25.30;61.90;;;;;;5037391;28;94497;-90
2023/06/24 01:47:10;;;;;;;5.55;3.60;;;25.30;61.80;;;;;;5037346;27;91774;-90
2023/06/24 01:49:41;;;;;;;6.15;4.35;;;25.30;61.80;;;;;;5037775;28;90222;-90
2023/06/24 01:52:09;;;;;;;5.20;4.10;;;25.30;61.60;;;;;;5037071;28;88074;-90
2023/06/24 01:54:37;;;;;;;4.78;3.67;;;25.30;61.60;;;;;;5038030;27;89670;-90
2023/06/24 01:57:05;;;;;;;6.05;4.15;;;25.20;61.80;;;;;;5037948;28;91894;-89
2023/06/24 01:59:33;;;;;;;5.43;4.13;;;25.20;61.60;;;;;;5037108;28;91145;-90
2023/06/24 02:02:00;;;;;;;4.93;3.83;;;25.20;61.70;;;;;;5036851;27;88332;-91
2023/06/24 02:04:30;;;;;;;4.30;3.83;;;25.20;61.70;;;;;;5037073;27;90060;-90
2023/06/24 02:07:01;;;;;;;4.85;3.90;;;25.20;61.90;;;;;;5037842;27;90232;-91
2023/06/24 02:09:30;;;;;;;4.90;3.90;;;25.20;61.80;;;;;;5037356;27;89939;-90
2023/06/24 02:11:58;;;;;;;4.78;4.13;;;25.20;61.70;;;;;;5037546;28;87158;-90
2023/06/24 02:14:27;;;;;;;5.40;4.13;;;25.20;61.70;;;;;;5037889;27;89381;-91
2023/06/24 02:16:56;;;;;;;5.18;4.18;;;25.20;61.80;;;;;;5054687;27;90851;-90
2023/06/24 02:19:23;;;;;;;4.43;3.50;;;25.20;61.80;;;;;;5037536;28;90454;-90
2023/06/24 02:21:51;;;;;;;5.32;3.83;;;25.20;61.80;;;;;;5054684;27;87338;-90
2023/06/24 02:24:19;;;;;;;3.85;3.40;;;25.20;61.80;;;;;;5054750;27;90144;-90
2023/06/24 02:26:46;;;;;;;6.22;3.88;;;25.20;61.80;;;;;;5037422;28;92733;-90
2023/06/24 02:29:13;;;;;;;4.63;3.95;;;25.20;61.70;;;;;;5053366;27;91982;-89
2023/06/24 02:31:38;;;;;;;4.47;3.55;;;25.20;61.80;;;;;;5037379;27;87499;-90
2023/06/24 02:34:04;;;;;;;6.38;4.18;;;25.20;61.80;;;;;;5040044;27;91166;-90
2023/06/24 02:36:30;;;;;;;4.75;3.78;;;25.20;61.70;;;;;;5040735;27;90483;-90
2023/06/24 02:38:56;;;;;;;6.45;4.28;;;25.20;61.80;;;;;;5040860;28;90865;-90
2023/06/24 02:41:21;;;;;;;3.90;3.50;;;25.20;61.60;;;;;;5041527;28;87282;-89
2023/06/24 02:43:47;;;;;;;5.25;4.20;;;25.20;61.70;;;;;;5041587;28;88633;-90
2023/06/24 02:46:14;;;;;;;3.80;3.40;;;25.20;61.70;;;;;;5040509;27;91318;-90
2023/06/24 02:48:41;;;;;;;5.53;4.15;;;25.20;61.50;;;;;;5040281;27;90524;-90
2023/06/24 02:51:09;;;;;;;4.35;3.60;;;25.20;61.50;;;;;;5040211;28;88290;-90
2023/06/24 02:53:37;;;;;;;4.05;3.50;;;25.20;61.60;;;;;;5040097;27;90308;-90
2023/06/24 02:56:04;;;;;;;5.18;3.72;;;25.20;61.60;;;;;;5040294;28;91438;-90
2023/06/24 02:58:31;;;;;;;5.15;3.92;;;25.20;61.50;;;;;;5057655;27;90495;-90
2023/06/24 03:01:03;;;;;;;4.18;3.53;;;25.20;61.40;;;;;;5040587;27;87182;-90
2023/06/24 03:03:29;;;;;;;4.35;3.88;;;25.20;61.60;;;;;;5040064;27;90361;-91
2023/06/24 03:05:58;;;;;;;4.45;3.75;;;25.20;61.40;;;;;;5041124;28;91464;-90
2023/06/24 03:08:25;;;;;;;4.63;3.70;;;25.20;61.40;;;;;;5040189;27;91515;-90
2023/06/24 03:10:54;;;;;;;4.60;4.10;;;25.10;61.30;;;;;;5040742;28;87380;-91
2023/06/24 03:13:20;;;;;;;4.45;3.35;;;25.20;61.40;;;;;;5040366;28;90307;-90
2023/06/24 03:15:46;;;;;;;4.93;3.65;;;25.10;61.30;;;;;;5038479;27;91388;-90
2023/06/24 03:18:11;;;;;;;5.10;3.50;;;25.10;61.40;;;;;;5040322;27;91133;-90
2023/06/24 03:20:38;;;;;;;4.18;3.75;;;25.10;61.40;;;;;;5041594;28;87425;-90
2023/06/24 03:23:08;;;;;;;4.68;3.80;;;25.10;61.40;;;;;;5039543;27;89014;-90
2023/06/24 03:25:35;;;;;;;4.85;3.70;;;25.10;61.40;;;;;;5056591;27;91180;-90
2023/06/24 03:28:03;;;;;;;4.43;3.55;;;25.10;61.40;;;;;;5039885;27;89399;-90
2023/06/24 03:30:29;;;;;;;4.73;3.57;;;25.10;61.40;;;;;;5040177;27;87460;-90
2023/06/24 03:32:57;;;;;;;5.00;3.67;;;25.10;61.20;;;;;;5041435;28;89836;-90
2023/06/24 03:35:24;;;;;;;5.07;3.53;;;25.10;61.40;;;;;;5039642;27;90273;-90
2023/06/24 03:37:49;;;;;;;4.22;3.83;;;25.10;61.50;;;;;;5039671;27;90025;-90
2023/06/24 03:40:15;;;;;;;4.63;3.78;;;25.10;61.50;;;;;;5039351;28;88323;-90
2023/06/24 03:42:41;;;;;;;4.10;3.38;;;25.10;61.50;;;;;;5039921;28;90747;-90
2023/06/24 03:45:07;;;;;;;3.92;3.53;;;25.10;61.40;;;;;;5040156;28;91455;-89
2023/06/24 03:47:32;;;;;;;3.83;3.47;;;25.10;61.40;;;;;;5040555;28;89708;-90
2023/06/24 03:49:58;;;;;;;3.67;3.28;;;25.10;61.60;;;;;;5040094;27;87323;-90
2023/06/24 03:52:24;;;;;;;4.07;3.67;;;25.10;61.60;;;;;;5039600;27;89228;-90
2023/06/24 03:54:50;;;;;;;4.20;3.28;;;25.10;61.50;;;;;;5056717;27;92337;-90
2023/06/24 03:57:16;;;;;;;3.80;3.20;;;25.00;61.40;;;;;;5041627;27;89316;-89
2023/06/24 03:59:42;;;;;;;4.85;3.70;;;25.10;61.40;;;;;;5040311;27;87441;-90
2023/06/24 04:02:08;;;;;;;5.40;3.70;;;25.10;61.40;;;;;;5038981;28;90652;-90
2023/06/24 04:04:34;;;;;;;3.90;3.50;;;25.10;61.50;;;;;;5039859;28;92352;-90
2023/06/24 04:07:00;;;;;;;4.32;3.72;;;25.10;61.40;;;;;;5039449;27;90736;-90
2023/06/24 04:09:26;;;;;;;3.50;3.20;;;25.10;61.40;;;;;;5039446;27;87219;-90
2023/06/24 04:11:51;;;;;;;3.92;3.13;;;25.10;61.30;;;;;;5040274;28;88831;-90
2023/06/24 04:14:17;;;;;;;4.28;3.60;;;25.10;61.20;;;;;;5039451;28;90454;-90
2023/06/24 04:16:43;;;;;;;4.35;3.78;;;25.10;61.40;;;;;;5038622;28;90834;-90
2023/06/24 04:19:08;;;;;;;4.10;3.17;;;25.10;61.40;;;;;;5039849;27;87077;-90
2023/06/24 04:21:34;;;;;;;4.50;3.60;;;25.10;61.50;;;;;;5039318;27;90430;-90
2023/06/24 04:24:00;;;;;;;4.88;3.40;;;25.10;61.30;;;;;;5040041;28;91264;-90
2023/06/24 04:26:25;;;;;;;5.32;3.53;;;25.10;61.30;;;;;;5038266;28;91118;-89
2023/06/24 04:28:51;;;;;;;4.00;3.15;;;25.10;61.30;;;;;;5038363;28;87839;-90
2023/06/24 04:31:17;;;;;;;4.25;3.33;;;25.10;61.30;;;;;;5039745;28;88040;-90
2023/06/24 04:33:42;;;;;;;4.05;3.35;;;25.20;60.90;;;;;;5039196;27;90322;-90
2023/06/24 04:36:08;;;;;;;3.95;3.53;;;25.20;61.00;;;;;;5040076;28;89702;-90
2023/06/24 04:38:33;;;;;;;3.40;3.10;;;25.20;60.90;;;;;;5039912;27;86986;-91
2023/06/24 04:40:59;;;;;;;4.07;3.42;;;25.20;60.70;;;;;;5039392;28;89168;-90
2023/06/24 04:43:27;;;;;;;3.75;3.35;;;25.20;60.80;;;;;;5038610;27;91278;-90
2023/06/24 04:45:55;;;;;;;4.10;3.03;;;25.30;60.60;;;;;;5039277;28;90207;-90
2023/06/24 04:48:23;;;;;;;3.65;3.25;;;25.30;60.40;;;;;;5038836;27;87346;-90
2023/06/24 04:50:49;;;;;;;3.63;3.10;;;25.40;60.30;;;;;;5039383;28;90383;-90
2023/06/24 04:53:15;;;;;;;3.33;2.95;;;25.40;60.30;;;;;;5039838;27;88442;-89
2023/06/24 04:55:40;;;;;;;3.85;3.42;;;25.40;60.50;;;;;;5037002;27;91982;-90
2023/06/24 04:58:06;;;;;;;3.88;3.47;;;25.40;60.00;;;;;;5039021;28;87134;-90
2023/06/24 05:00:32;;;;;;;4.07;3.67;;;25.50;60.20;;;;;;5039165;27;88693;-90
2023/06/24 05:02:57;;;;;;;3.88;3.50;;;25.50;60.20;;;;;;5039178;28;90465;-91
2023/06/24 05:05:23;;;;;;;4.13;3.53;;;25.50;60.00;;;;;;5038168;27;90041;-90
2023/06/24 05:07:49;;;;;;;3.28;2.95;;;25.50;60.60;;;;;;5038603;28;87213;-90
2023/06/24 05:10:15;;;;;;;4.07;3.25;;;25.50;60.30;;;;;;5038265;27;90551;-90
2023/06/24 05:12:41;;;;;;;3.55;3.17;;;25.50;60.30;;;;;;5037739;28;90776;-90
2023/06/24 05:15:07;;;;;;;4.47;3.35;;;25.60;60.20;;;;;;5039479;28;91595;-90
2023/06/24 05:17:33;;;;;;;4.50;3.38;;;25.60;60.10;;;;;;5038916;28;88041;-90
2023/06/24 05:19:58;;;;;;;3.75;3.30;;;25.60;60.00;;;;;;5038605;27;90214;-90
2023/06/24 05:22:24;;;;;;;3.92;3.45;;;25.70;60.00;;;;;;5037644;27;90134;-90
2023/06/24 05:24:50;;;;;;;3.08;2.78;;;25.80;59.80;;;;;;5037961;28;91182;-90
2023/06/24 05:27:17;;;;;;;3.30;3.00;;;25.80;59.70;;;;;;5038561;27;86897;-90
2023/06/24 05:29:43;;;;;;;3.97;2.72;;;25.80;59.60;;;;;;5038538;28;90273;-85
2023/06/24 05:32:08;;;;;;;3.97;3.42;;;25.90;59.30;;;;;;5039121;27;87752;-85
2023/06/24 05:34:34;;;;;;;6.68;3.95;;;25.80;59.20;;;;;;5039365;27;87983;-84
2023/06/24 05:37:00;;;;;;;7.00;4.25;;;25.70;57.80;;;;;;5039494;27;87080;-86
2023/06/24 05:39:26;;;;;;;5.47;4.47;;;25.50;57.10;;;;;;5038959;27;87119;-85
2023/06/24 05:41:51;;;;;;;6.60;4.30;;;25.40;56.80;;;;;;5038901;28;89227;-87
2023/06/24 05:44:19;;;;;;;7.20;4.30;;;25.40;56.80;;;;;;5037502;28;90558;-87
2023/06/24 05:46:45;;;;;;;5.32;3.95;;;25.40;56.60;;;;;;5037728;27;87552;-89
2023/06/24 05:49:11;;;;;;;5.40;4.00;;;25.40;56.50;;;;;;5039008;28;95138;-86
2023/06/24 05:51:37;;;;;;;5.90;3.85;;;25.50;56.30;;;;;;5037800;27;87776;-88
2023/06/24 05:54:03;;;;;;;6.22;3.85;;;25.40;56.10;;;;;;5039445;28;88171;-89
2023/06/24 05:56:29;;;;;;;10.45;4.53;;;25.50;54.40;;;;;;5037091;27;87874;-88
2023/06/24 05:58:55;;;;;;;8.23;4.65;;;25.70;54.10;;;;;;5036979;27;87915;-88
2023/06/24 06:01:21;;;;;;;5.88;4.22;;;25.60;53.40;;;;;;5037923;27;88670;-89
2023/06/24 06:03:46;;;;;;;5.13;4.07;;;25.60;53.70;;;;;;5037043;28;90055;-89
2023/06/24 06:06:12;;;;;;;6.53;4.30;;;25.70;52.90;;;;;;5036364;27;87915;-90
2023/06/24 06:08:38;;;;;;;7.82;4.30;;;25.60;52.70;;;;;;5039396;28;86997;-90
2023/06/24 06:11:03;;;;;;;7.85;3.63;;;25.70;52.60;;;;;;5037187;28;91684;-90
2023/06/24 06:13:30;;;;;;;7.50;3.85;;;25.70;50.80;;;;;;5037030;27;89755;-90
2023/06/24 06:15:56;;;;;;;7.78;3.28;;;25.50;52.20;;;;;;5035252;28;87113;-89
2023/06/24 06:18:22;;;;;;;5.22;3.28;;;25.50;52.20;;;;;;5037397;27;90104;-90
2023/06/24 06:20:48;;;;;;;5.90;3.45;;;25.50;51.90;;;;;;5038271;28;91075;-88
2023/06/24 06:23:15;;;;;;;5.82;3.70;;;25.60;50.80;;;;;;5035976;27;90890;-87
2023/06/24 06:25:40;;;;;;;5.85;3.25;;;25.50;50.50;;;;;;5053441;27;87325;-89
2023/06/24 06:28:06;;;;;;;6.43;3.45;;;25.50;50.30;;;;;;5036455;27;88598;-91
2023/06/24 06:30:31;;;;;;;15.30;5.75;;;25.50;50.70;;;;;;5036659;27;92150;-91
2023/06/24 06:32:57;;;;;;;24.13;7.63;;;25.50;50.60;;;;;;5037227;28;90736;-91
2023/06/24 06:35:23;;;;;;;30.08;8.20;;;25.50;49.60;;;;;;5036823;27;87213;-91
2023/06/24 06:37:52;;;;;;;30.98;8.02;;;25.40;50.00;;;;;;5037534;28;89560;-92
2023/06/24 06:40:19;;;;;;;23.52;6.68;;;25.30;50.50;;;;;;5029852;27;90281;-91
2023/06/24 06:42:44;;;;;;;12.07;5.20;;;25.20;50.60;;;;;;5036778;27;90955;-90
2023/06/24 06:45:10;;;;;;;11.23;4.07;;;25.20;50.30;;;;;;5038157;28;87391;-92
2023/06/24 06:47:36;;;;;;;12.32;4.05;;;25.30;49.40;;;;;;5036721;28;90394;-88
2023/06/24 06:50:02;;;;;;;7.45;3.75;;;25.40;49.30;;;;;;5038681;27;88054;-87
2023/06/24 06:52:28;;;;;;;9.23;3.90;;;25.40;49.20;;;;;;5037466;27;88142;-87
2023/06/24 06:54:54;;;;;;;10.57;3.78;;;25.40;49.60;;;;;;5037672;27;88003;-88
2023/06/24 06:57:20;;;;;;;6.18;3.63;;;25.40;48.80;;;;;;5036718;27;91262;-91
2023/06/24 06:59:45;;;;;;;4.93;3.30;;;25.40;49.70;;;;;;5037754;28;91513;-90
2023/06/24 07:02:11;;;;;;;5.28;3.20;;;25.40;50.00;;;;;;5036671;27;89368;-92
2023/06/24 07:04:37;;;;;;;5.47;3.13;;;25.40;48.20;;;;;;5036589;28;87050;-91
2023/06/24 07:07:02;;;;;;;8.80;3.25;;;25.40;49.00;;;;;;5036943;28;90046;-90
2023/06/24 07:09:28;;;;;;;5.25;3.25;;;25.30;48.60;;;;;;5024371;27;91428;-89
2023/06/24 07:11:54;;;;;;;4.70;2.72;;;25.30;47.90;;;;;;5035696;28;89065;-89
2023/06/24 07:14:19;;;;;;;3.67;2.65;;;25.30;48.70;;;;;;5037027;27;87838;-89
2023/06/24 07:16:45;;;;;;;4.50;2.55;;;25.40;47.90;;;;;;5036151;27;86964;-89
2023/06/24 07:19:11;;;;;;;3.88;2.75;;;25.30;48.60;;;;;;5037618;27;89029;-92
2023/06/24 07:21:37;;;;;;;4.20;2.45;;;25.30;48.40;;;;;;5038512;28;90801;-89
2023/06/24 07:24:03;;;;;;;5.57;2.65;;;25.30;48.10;;;;;;5039237;28;87428;-90
2023/06/24 07:26:30;;;;;;;3.63;2.58;;;25.30;48.10;;;;;;5037648;28;90822;-89
2023/06/24 07:28:59;;;;;;;4.53;2.85;;;25.30;48.20;;;;;;5038224;27;90923;-91
2023/06/24 07:31:24;;;;;;;;;;;25.20;48.60;;;;;;5038673;27;90093;-89
2023/06/24 07:33:50;;;;;;;3.30;2.40;;;25.20;49.00;;;;;;5040050;28;87268;-91
2023/06/24 07:36:16;;;;;;;6.90;2.78;;;25.20;49.30;;;;;;5038555;27;88271;-90
2023/06/24 07:38:42;;;;;;;3.72;2.42;;;25.20;48.90;;;;;;5038281;28;89915;-89
2023/06/24 07:41:08;;;;;;;5.38;3.17;;;25.20;49.00;;;;;;5038575;27;91100;-90
2023/06/24 07:43:33;;;;;;;4.85;3.00;;;25.20;49.70;;;;;;5037970;27;88477;-90
2023/06/24 07:45:59;;;;;;;3.97;2.92;;;25.20;49.80;;;;;;5040348;27;87538;-90
2023/06/24 07:48:25;;;;;;;4.10;2.47;;;25.20;50.20;;;;;;5038969;27;91497;-89
2023/06/24 07:50:50;;;;;;;3.38;2.40;;;25.20;49.80;;;;;;5039775;28;89921;-89
2023/06/24 07:53:16;;;;;;;5.03;3.00;;;25.20;49.00;;;;;;5039649;27;86973;-89
2023/06/24 07:55:42;;;;;;;6.53;2.55;;;25.20;48.20;;;;;;5038368;27;89019;-89
2023/06/24 07:58:07;;;;;;;5.07;2.58;;;25.20;48.40;;;;;;5036464;28;89745;-89
2023/06/24 08:00:33;;;;;;;3.63;2.55;;;25.30;48.50;;;;;;5037750;27;87318;-89
2023/06/24 08:02:59;;;;;;;3.15;2.28;;;25.30;47.40;;;;;;5036929;28;86969;-89
2023/06/24 08:05:25;;;;;;;2.60;2.30;;;25.40;46.70;;;;;;5036798;27;86841;-88
2023/06/24 08:07:51;;;;;;;3.55;2.45;;;25.30;46.90;;;;;;5036976;27;89701;-90
2023/06/24 08:10:17;;;;;;;2.30;2.03;;;25.30;46.00;;;;;;5053212;27;92099;-90
2023/06/24 08:12:43;;;;;;;4.25;2.20;;;25.40;45.90;;;;;;5038646;28;86919;-90
2023/06/24 08:15:09;;;;;;;3.95;2.40;;;25.40;44.70;;;;;;5039034;28;90485;-91
2023/06/24 08:17:35;;;;;;;4.15;2.20;;;25.30;45.40;;;;;;5038615;27;91059;-91
2023/06/24 08:20:02;;;;;;;5.35;2.35;;;25.20;46.50;;;;;;5039234;28;90557;-94
2023/06/24 08:22:28;;;;;;;5.32;2.50;;;25.20;45.80;;;;;;5038898;28;86954;-92
2023/06/24 08:24:54;;;;;;;6.40;2.47;;;25.20;45.10;;;;;;5039329;27;90722;-92
2023/06/24 08:27:19;;;;;;;5.55;2.67;;;25.20;44.80;;;;;;5038903;27;91803;-89
2023/06/24 08:29:45;;;;;;;4.43;2.40;;;25.30;44.60;;;;;;5039502;27;90227;-91
2023/06/24 08:32:11;;;;;;;5.05;2.10;;;25.30;44.20;;;;;;5038883;28;88220;-91
2023/06/24 08:34:36;;;;;;;3.58;2.30;;;25.20;44.30;;;;;;5039067;27;90266;-91
2023/06/24 08:37:02;;;;;;;2.65;2.03;;;25.20;44.50;;;;;;5038795;27;91405;-91
2023/06/24 08:39:28;;;;;;;4.43;2.47;;;25.20;44.80;;;;;;5038855;27;90456;-91
2023/06/24 08:41:54;;;;;;;3.78;2.65;;;25.10;44.80;;;;;;5040109;28;86931;-91
2023/06/24 08:44:19;;;;;;;8.93;2.50;;;25.10;45.20;;;;;;5038741;27;90153;-92
2023/06/24 08:46:45;;;;;;;3.47;2.33;;;25.10;45.40;;;;;;5039686;28;88427;-91
2023/06/24 08:49:23;;;;;;;6.75;2.75;;;25.00;45.90;;;;;;5039006;27;87379;-90
2023/06/24 08:52:07;;;;;;;5.35;2.70;;;25.10;45.80;;;;;;5038159;27;87084;-90
2023/06/24 08:54:35;;;;;;;23.83;7.18;;;25.20;45.40;;;;;;5055729;27;92427;-93
2023/06/24 08:57:04;;;;;;;45.72;12.40;;;25.10;45.70;;;;;;5040066;28;88405;-92
2023/06/24 08:59:31;;;;;;;;;;;25.10;45.90;;;;;;5038008;27;91899;-91
2023/06/24 09:01:56;;;;;;;18.10;6.78;;;25.20;46.20;;;;;;5041170;28;86866;-92
2023/06/24 09:04:22;;;;;;;29.00;7.30;;;25.20;45.40;;;;;;5038861;28;90835;-93
2023/06/24 09:06:48;;;;;;;18.83;6.22;;;25.20;46.10;;;;;;5038888;28;91409;-92
2023/06/24 09:09:21;;;;;;;24.17;6.43;;;25.20;46.50;;;;;;5030014;27;91482;-92
2023/06/24 09:12:01;;;;;;;22.42;8.20;;;25.20;46.60;;;;;;5040879;28;86892;-91
2023/06/24 09:14:29;;;;;;;22.02;7.50;;;25.20;46.90;;;;;;5055024;27;88778;-91
2023/06/24 09:16:56;;;;;;;16.97;5.57;;;25.20;47.20;;;;;;5037748;27;91605;-90
2023/06/24 09:19:29;;;;;;;25.67;6.63;;;25.20;47.50;;;;;;5038321;27;91588;-90
2023/06/24 09:21:55;;;;;;;18.15;4.97;;;25.10;47.50;;;;;;5054498;27;88446;-91
2023/06/24 09:24:21;;;;;;;15.52;6.22;;;25.20;48.00;;;;;;5037590;27;89503;-90
2023/06/24 09:26:46;;;;;;;17.88;5.82;;;25.10;47.80;;;;;;5038726;28;91383;-90
2023/06/24 09:29:15;;;;;;;15.07;5.23;;;25.20;48.00;;;;;;5037950;27;87333;-91
2023/06/24 09:31:52;;;;;;;17.40;5.35;;;25.20;48.40;;;;;;5038822;28;87509;-90
2023/06/24 09:34:19;;;;;;;17.75;5.40;;;25.20;48.40;;;;;;5037492;27;90630;-90
2023/06/24 09:36:52;;;;;;;12.25;5.28;;;25.20;48.60;;;;;;5037200;27;91166;-89
2023/06/24 09:39:18;;;;;;;14.75;5.20;;;25.20;48.70;;;;;;5039665;27;87199;-90
2023/06/24 09:41:49;;;;;;;12.30;5.28;;;25.20;49.10;;;;;;5038161;28;87689;-91
2023/06/24 09:44:19;;;;;;;12.50;5.00;;;25.30;49.30;;;;;;5037354;27;89551;-90
2023/06/24 09:46:45;;;;;;;12.73;5.15;;;25.30;49.50;;;;;;5036532;27;92375;-89
2023/06/24 09:49:11;;;;;;;13.85;5.20;;;25.30;49.40;;;;;;5036608;28;90305;-90
2023/06/24 09:51:39;;;;;;;12.98;5.18;;;25.30;49.60;;;;;;5037390;27;88372;-85
2023/06/24 09:54:09;;;;;;;13.60;5.68;;;25.30;49.70;;;;;;5038956;28;87505;-85
2023/06/24 09:56:42;;;;;;;18.20;4.82;;;25.30;49.70;;;;;;5038200;27;88630;-87
2023/06/24 09:59:08;;;;;;;12.90;5.18;;;25.40;49.70;;;;;;5037842;27;88360;-88
2023/06/24 10:01:38;;;;;;;8.82;5.35;;;25.30;50.20;;;;;;5036056;28;87487;-88
2023/06/24 10:04:06;;;;;;;14.93;7.05;;;25.30;50.30;;;;;;5038435;27;86418;-89
2023/06/24 10:06:33;;;;;;;13.73;7.28;;;25.30;50.80;;;;;;5039016;27;88563;-91
2023/06/24 10:09:00;;;;;;;11.65;7.80;;;25.30;51.10;;;;;;5038295;28;90444;-88
2023/06/24 10:11:25;;;;;;;15.30;8.77;;;25.40;51.50;;;;;;5043095;27;88400;-89
2023/06/24 10:13:52;;;;;;;14.50;8.00;;;25.30;51.70;;;;;;5035879;28;89939;-87
2023/06/24 10:16:18;;;;;;;14.05;8.27;;;25.30;51.80;;;;;;5038227;27;89427;-89
2023/06/24 10:18:45;;;;;;;13.63;7.30;;;25.30;51.90;;;;;;5036126;27;91081;-88
2023/06/24 10:21:11;;;;;;;11.52;8.10;;;25.30;51.90;;;;;;5037722;28;87309;-87
2023/06/24 10:23:49;;;;;;;10.10;7.38;;;25.30;52.20;;;;;;5037438;28;93324;-86
2023/06/24 10:26:29;;;;;;;12.20;7.38;;;25.30;52.40;;;;;;5037818;27;90094;-86
2023/06/24 10:29:07;;;;;;;14.43;7.45;;;25.30;52.20;;;;;;5038287;27;86421;-87
2023/06/24 10:31:44;;;;;;;10.93;7.97;;;25.30;52.30;;;;;;5038797;27;87061;-91
2023/06/24 10:34:29;;;;;;;14.82;7.55;;;25.30;52.30;;;;;;5037181;27;89030;-90
2023/06/24 10:37:09;;;;;;;12.20;7.00;;;25.40;52.60;;;;;;5036346;28;90132;-89
2023/06/24 10:39:51;;;;;;;12.63;7.95;;;25.40;52.60;;;;;;5035299;27;91865;-88
2023/06/24 10:42:38;;;;;;;11.07;6.75;;;25.40;52.70;;;;;;5036477;27;87615;-87
2023/06/24 10:45:09;;;;;;;14.23;7.28;;;25.50;52.60;;;;;;5034828;28;89555;-88
2023/06/24 10:47:40;;;;;;;15.00;7.43;;;25.40;52.90;;;;;;5036228;27;88621;-88
2023/06/24 10:50:07;;;;;;;13.82;7.60;;;25.50;53.30;;;;;;5050277;27;91440;-89
2023/06/24 10:52:41;;;;;;;15.65;8.10;;;25.50;53.30;;;;;;5036235;27;87854;-91
2023/06/24 10:55:07;;;;;;;11.57;6.43;;;25.40;53.40;;;;;;5036353;27;89423;-90
2023/06/24 10:57:34;;;;;;;16.15;7.03;;;25.50;53.30;;;;;;5037707;27;90025;-91
2023/06/24 11:00:02;;;;;;;13.57;6.07;;;25.50;53.20;;;;;;5039476;28;90874;-90
2023/06/24 11:02:27;;;;;;;12.35;6.78;;;25.50;53.30;;;;;;5037294;27;88439;-91
2023/06/24 11:04:57;;;;;;;14.60;6.63;;;25.70;53.10;;;;;;5035957;28;89257;-92
2023/06/24 11:07:28;;;;;;;13.38;7.07;;;25.70;52.90;;;;;;5036263;28;90339;-91
2023/06/24 11:09:56;;;;;;;13.95;6.60;;;25.60;53.30;;;;;;5037234;27;90021;-92
2023/06/24 11:12:26;;;;;;;11.02;6.38;;;25.50;53.40;;;;;;5036567;27;87180;-90
2023/06/24 11:14:57;;;;;;;14.80;6.88;;;25.60;53.30;;;;;;5036661;28;91350;-88
2023/06/24 11:17:24;;;;;;;15.13;7.32;;;25.60;53.10;;;;;;5039444;27;88725;-89
2023/06/24 11:19:49;;;;;;;12.38;6.90;;;25.60;53.10;;;;;;5039591;27;88788;-88
2023/06/24 11:22:15;;;;;;;13.63;6.22;;;25.70;53.60;;;;;;5039428;27;87516;-87
2023/06/24 11:24:41;;;;;;;13.60;7.00;;;25.70;54.00;;;;;;5036856;28;90603;-87
2023/06/24 11:27:07;;;;;;;20.55;7.70;;;25.70;54.60;;;;;;5037245;28;92599;-88
2023/06/24 11:29:34;;;;;;;14.18;7.57;;;25.60;55.10;;;;;;5037435;27;92116;-88
2023/06/24 11:32:01;;;;;;;15.60;7.90;;;25.60;55.40;;;;;;5036214;28;88058;-89
2023/06/24 11:34:27;;;;;;;15.65;7.72;;;25.60;55.80;;;;;;5037794;27;89735;-90
2023/06/24 11:36:53;;;;;;;13.63;8.20;;;25.70;56.40;;;;;;5035917;27;91360;-90
2023/06/24 11:39:26;;;;;;;15.35;7.22;;;25.60;56.60;;;;;;5038380;27;88508;-89
2023/06/24 11:41:52;;;;;;;18.13;8.52;;;25.70;56.90;;;;;;5038304;28;87527;-89
2023/06/24 11:44:23;;;;;;;13.40;7.65;;;25.70;57.20;;;;;;5037958;28;89946;-91
2023/06/24 11:46:49;;;;;;;16.67;7.82;;;25.70;57.10;;;;;;5037743;27;91474;-89
2023/06/24 11:49:15;;;;;;;16.17;8.25;;;25.70;57.70;;;;;;5039871;27;88392;-88
2023/06/24 11:51:50;;;;;;;15.57;7.95;;;25.80;58.40;;;;;;5035835;28;88547;-88
2023/06/24 11:54:20;;;;;;;17.65;8.82;;;25.80;58.40;;;;;;5037121;27;89324;-91
2023/06/24 11:56:51;;;;;;;13.82;8.13;;;25.80;59.00;;;;;;5037768;28;89422;-95
2023/06/24 11:59:26;;;;;;;14.82;7.55;;;25.80;60.00;;;;;;5056414;27;90216;-93
2023/06/24 12:01:54;;;;;;;15.43;7.78;;;25.90;59.60;;;;;;5038496;27;87641;-91
2023/06/24 12:04:20;;;;;;;13.80;7.22;;;26.00;59.40;;;;;;5036848;27;89841;-94
2023/06/24 12:06:46;;;;;;;13.55;7.85;;;26.00;59.30;;;;;;5036056;28;90152;-93
2023/06/24 12:09:15;;;;;;;15.40;7.97;;;26.00;59.00;;;;;;5039139;28;89116;-92
2023/06/24 12:11:41;;;;;;;13.50;6.88;;;26.00;59.00;;;;;;5037887;28;87770;-93
2023/06/24 12:14:07;;;;;;;13.27;8.00;;;26.00;58.80;;;;;;5038119;27;89767;-93
2023/06/24 12:16:33;;;;;;;13.07;7.10;;;26.00;58.70;;;;;;5036599;28;92631;-93
2023/06/24 12:18:58;;;;;;;13.90;8.02;;;25.90;58.70;;;;;;5037330;27;90763;-91
2023/06/24 12:21:24;;;;;;;14.10;7.20;;;25.90;58.60;;;;;;5036540;27;88150;-94
2023/06/24 12:23:49;;;;;;;13.35;7.25;;;25.90;58.90;;;;;;5038935;28;89897;-93
2023/06/24 12:26:15;;;;;;;12.05;7.03;;;25.80;58.80;;;;;;5037828;28;90058;-95
2023/06/24 12:28:41;;;;;;;16.75;7.20;;;25.90;58.90;;;;;;5035885;27;91271;-93
2023/06/24 12:31:07;;;;;;;13.43;7.65;;;25.80;58.90;;;;;;5038040;28;87115;-91
2023/06/24 12:33:33;;;;;;;10.65;6.15;;;25.80;58.90;;;;;;5037693;27;88842;-92
2023/06/24 12:35:59;;;;;;;10.30;6.82;;;25.80;58.80;;;;;;5037645;28;90840;-88
2023/06/24 12:38:24;;;;;;;14.70;7.78;;;25.90;58.80;;;;;;5036155;28;90600;-90
2023/06/24 12:40:50;;;;;;;10.52;6.57;;;26.00;58.60;;;;;;5033421;28;88878;-91
2023/06/24 12:43:16;;;;;;;11.18;6.93;;;26.00;58.30;;;;;;5034893;28;89216;-90
2023/06/24 12:45:44;;;;;;;13.85;7.03;;;26.10;58.20;;;;;;5034465;28;90930;-91